Time,TemperatureF,DewpointF,PressureIn,WindDirection,WindDirectionDegrees,WindSpeedMPH,WindSpeedGustMPH,Humidity,HourlyPrecipIn,Conditions,Clouds,dailyrainin,SoftwareType,DateUTC
2013-09-01 00:00:00,82.9,78.6,29.91,West,266,0.0,11.0,87,0.00,,,0.00,Wunderground v.1.15,2013-09-01 04:00:00,
2013-09-01 00:05:00,82.9,78.6,29.91,WSW,251,0.0,11.0,87,0.00,,,0.00,Wunderground v.1.15,2013-09-01 04:05:00,
2013-09-01 00:10:00,82.8,78.5,29.91,West,261,1.0,1.0,87,0.00,,,0.00,Wunderground v.1.15,2013-09-01 04:10:00,
2013-09-01 00:15:00,82.9,78.6,29.91,WSW,256,1.0,11.0,87,0.00,,,0.00,Wunderground v.1.15,2013-09-01 04:15:00,
2013-09-01 00:20:00,82.9,79.0,29.91,WSW,258,1.0,1.0,88,0.00,,,0.00,Wunderground v.1.15,2013-09-01 04:20:00,
2013-09-01 00:25:00,82.9,79.0,29.91,WSW,246,3.0,6.0,88,0.00,,,0.00,Wunderground v.1.15,2013-09-01 04:25:00,
2013-09-01 00:35:00,83.0,78.7,29.90,WSW,248,5.0,11.0,87,0.00,,,0.00,Wunderground v.1.15,2013-09-01 04:35:00,
2013-09-01 00:40:00,83.0,78.7,29.90,WSW,250,4.0,11.0,87,0.00,,,0.00,Wunderground v.1.15,2013-09-01 04:40:00,
2013-09-01 00:45:00,83.0,78.7,29.90,WSW,248,4.0,11.0,87,0.00,,,0.00,Wunderground v.1.15,2013-09-01 04:45:00,
2013-09-01 00:50:00,83.1,78.8,29.90,SW,235,3.0,11.0,87,0.00,,,0.00,Wunderground v.1.15,2013-09-01 04:50:00,
2013-09-01 00:55:00,82.9,78.6,29.90,WSW,246,4.0,11.0,87,0.00,,,0.00,Wunderground v.1.15,2013-09-01 04:55:00,
2013-09-01 01:00:00,82.9,78.3,29.90,SSW,202,6.0,11.0,86,0.00,,,0.00,Wunderground v.1.15,2013-09-01 05:00:00,
2013-09-01 01:10:00,83.0,78.4,29.90,WSW,241,6.0,11.0,86,0.00,,,0.00,Wunderground v.1.15,2013-09-01 05:10:00,
2013-09-01 01:15:00,83.0,78.4,29.90,WSW,246,6.0,11.0,86,0.00,,,0.00,Wunderground v.1.15,2013-09-01 05:15:00,
2013-09-01 01:20:00,83.0,78.4,29.90,SW,232,7.0,11.0,86,0.00,,,0.00,Wunderground v.1.15,2013-09-01 05:20:00,
2013-09-01 01:25:00,83.0,78.4,29.89,WSW,244,8.0,11.0,86,0.00,,,0.00,Wunderground v.1.15,2013-09-01 05:25:00,
2013-09-01 01:30:00,83.0,78.7,29.89,WSW,245,8.0,8.0,87,0.00,,,0.00,Wunderground v.1.15,2013-09-01 05:30:00,
2013-09-01 01:40:00,82.9,78.6,29.89,West,259,8.0,8.0,87,0.00,,,0.00,Wunderground v.1.15,2013-09-01 05:40:00,
2013-09-01 01:45:00,82.9,78.6,29.89,WSW,256,8.0,11.0,87,0.00,,,0.00,Wunderground v.1.15,2013-09-01 05:45:00,
2013-09-01 01:50:00,82.9,78.6,29.89,WSW,250,7.0,11.0,87,0.00,,,0.00,Wunderground v.1.15,2013-09-01 05:50:00,
2013-09-01 01:55:00,82.9,78.6,29.89,WSW,238,7.0,11.0,87,0.00,,,0.00,Wunderground v.1.15,2013-09-01 05:55:00,
2013-09-01 02:05:00,82.8,78.9,29.89,SW,233,8.0,10.0,88,0.00,,,0.00,Wunderground v.1.15,2013-09-01 06:05:00,
2013-09-01 02:10:00,82.7,78.8,29.89,WSW,242,8.0,11.0,88,0.00,,,0.00,Wunderground v.1.15,2013-09-01 06:10:00,
2013-09-01 02:15:00,82.6,78.7,29.88,WSW,252,9.0,11.0,88,0.00,,,0.00,Wunderground v.1.15,2013-09-01 06:15:00,
2013-09-01 02:20:00,82.6,78.7,29.88,WSW,248,9.0,9.0,88,0.00,,,0.00,Wunderground v.1.15,2013-09-01 06:20:00,
2013-09-01 02:25:00,82.6,78.7,29.88,West,269,9.0,11.0,88,0.00,,,0.00,Wunderground v.1.15,2013-09-01 06:25:00,
2013-09-01 02:30:00,82.6,78.7,29.88,West,263,9.0,11.0,88,0.00,,,0.00,Wunderground v.1.15,2013-09-01 06:30:00,
2013-09-01 02:35:00,82.6,78.7,29.88,West,262,8.0,11.0,88,0.00,,,0.00,Wunderground v.1.15,2013-09-01 06:35:00,
2013-09-01 02:40:00,82.5,78.6,29.88,WSW,249,8.0,8.0,88,0.00,,,0.00,Wunderground v.1.15,2013-09-01 06:40:00,
2013-09-01 02:50:00,82.5,78.6,29.87,West,265,9.0,9.0,88,0.00,,,0.00,Wunderground v.1.15,2013-09-01 06:50:00,
2013-09-01 02:55:00,82.5,78.6,29.88,West,261,9.0,10.0,88,0.00,,,0.00,Wunderground v.1.15,2013-09-01 06:55:00,
2013-09-01 03:00:00,82.6,78.7,29.88,WSW,257,8.0,11.0,88,0.00,,,0.00,Wunderground v.1.15,2013-09-01 07:00:00,
2013-09-01 03:05:00,82.6,78.7,29.88,West,268,8.0,11.0,88,0.00,,,0.00,Wunderground v.1.15,2013-09-01 07:05:00,
2013-09-01 03:10:00,82.5,78.6,29.88,West,259,9.0,11.0,88,0.00,,,0.00,Wunderground v.1.15,2013-09-01 07:10:00,
2013-09-01 03:15:00,82.4,78.8,29.88,West,269,8.0,11.0,89,0.00,,,0.00,Wunderground v.1.15,2013-09-01 07:15:00,
2013-09-01 03:20:00,82.4,78.8,29.88,West,259,7.0,11.0,89,0.00,,,0.00,Wunderground v.1.15,2013-09-01 07:20:00,
2013-09-01 03:30:00,82.3,78.7,29.88,West,272,8.0,8.0,89,0.00,,,0.00,Wunderground v.1.15,2013-09-01 07:30:00,
2013-09-01 03:35:00,82.4,78.8,29.88,WNW,286,8.0,9.0,89,0.00,,,0.00,Wunderground v.1.15,2013-09-01 07:35:00,
2013-09-01 03:40:00,82.3,78.7,29.88,WNW,289,7.0,11.0,89,0.00,,,0.00,Wunderground v.1.15,2013-09-01 07:40:00,
2013-09-01 03:45:00,82.2,78.6,29.88,West,266,8.0,11.0,89,0.00,,,0.00,Wunderground v.1.15,2013-09-01 07:45:00,
2013-09-01 03:50:00,82.2,78.6,29.88,West,279,7.0,11.0,89,0.00,,,0.00,Wunderground v.1.15,2013-09-01 07:50:00,
2013-09-01 03:55:00,82.1,78.5,29.88,West,266,7.0,11.0,89,0.00,,,0.00,Wunderground v.1.15,2013-09-01 07:55:00,
2013-09-01 04:05:00,82.0,78.4,29.88,West,271,8.0,11.0,89,0.00,,,0.00,Wunderground v.1.15,2013-09-01 08:05:00,
2013-09-01 04:10:00,82.1,78.5,29.88,West,272,7.0,11.0,89,0.00,,,0.00,Wunderground v.1.15,2013-09-01 08:10:00,
2013-09-01 04:15:00,82.1,78.5,29.88,West,267,7.0,11.0,89,0.00,,,0.00,Wunderground v.1.15,2013-09-01 08:15:00,
2013-09-01 04:20:00,82.1,78.5,29.88,West,275,8.0,11.0,89,0.00,,,0.00,Wunderground v.1.15,2013-09-01 08:20:00,
2013-09-01 04:25:00,82.1,78.5,29.88,West,263,8.0,11.0,89,0.00,,,0.00,Wunderground v.1.15,2013-09-01 08:25:00,
2013-09-01 04:30:00,82.1,78.9,29.88,West,281,7.0,7.0,90,0.00,,,0.00,Wunderground v.1.15,2013-09-01 08:30:00,
2013-09-01 04:35:00,82.1,78.9,29.88,West,279,8.0,10.0,90,0.00,,,0.00,Wunderground v.1.15,2013-09-01 08:35:00,
2013-09-01 04:45:00,82.0,78.8,29.88,West,273,8.0,11.0,90,0.00,,,0.00,Wunderground v.1.15,2013-09-01 08:45:00,
2013-09-01 04:50:00,82.0,78.8,29.88,West,264,8.0,8.0,90,0.00,,,0.00,Wunderground v.1.15,2013-09-01 08:50:00,
2013-09-01 04:55:00,81.9,78.7,29.88,West,278,8.0,11.0,90,0.00,,,0.00,Wunderground v.1.15,2013-09-01 08:55:00,
2013-09-01 05:00:00,81.9,78.7,29.88,West,281,7.0,11.0,90,0.00,,,0.00,Wunderground v.1.15,2013-09-01 09:00:00,
2013-09-01 05:05:00,81.8,78.6,29.88,West,281,8.0,11.0,90,0.00,,,0.00,Wunderground v.1.15,2013-09-01 09:05:00,
2013-09-01 05:10:00,81.9,78.7,29.88,West,275,9.0,9.0,90,0.00,,,0.00,Wunderground v.1.15,2013-09-01 09:10:00,
2013-09-01 05:15:00,81.9,78.7,29.88,WNW,297,8.0,11.0,90,0.00,,,0.00,Wunderground v.1.15,2013-09-01 09:15:00,
2013-09-01 05:25:00,82.1,78.9,29.88,WNW,292,8.0,11.0,90,0.00,,,0.00,Wunderground v.1.15,2013-09-01 09:25:00,
2013-09-01 05:30:00,82.2,78.6,29.88,WNW,285,10.0,10.0,89,0.00,,,0.00,Wunderground v.1.15,2013-09-01 09:30:00,
2013-09-01 05:35:00,82.4,79.2,29.88,WNW,296,10.0,11.0,90,0.00,,,0.00,Wunderground v.1.15,2013-09-01 09:35:00,
2013-09-01 05:40:00,82.3,78.7,29.88,West,277,10.0,13.0,89,0.00,,,0.00,Wunderground v.1.15,2013-09-01 09:40:00,
2013-09-01 05:45:00,82.5,79.3,29.88,West,279,11.0,13.0,90,0.00,,,0.00,Wunderground v.1.15,2013-09-01 09:45:00,
2013-09-01 05:55:00,82.3,78.7,29.88,WNW,288,12.0,13.0,89,0.00,,,0.00,Wunderground v.1.15,2013-09-01 09:55:00,
2013-09-01 06:00:00,82.4,78.8,29.88,West,270,11.0,11.0,89,0.00,,,0.00,Wunderground v.1.15,2013-09-01 10:00:00,
2013-09-01 06:05:00,82.3,78.7,29.88,WNW,288,10.0,11.0,89,0.00,,,0.00,Wunderground v.1.15,2013-09-01 10:05:00,
2013-09-01 06:10:00,82.2,78.6,29.88,West,274,10.0,10.0,89,0.00,,,0.00,Wunderground v.1.15,2013-09-01 10:10:00,
2013-09-01 06:15:00,82.3,78.7,29.88,West,279,10.0,12.0,89,0.00,,,0.00,Wunderground v.1.15,2013-09-01 10:15:00,
2013-09-01 06:20:00,82.3,78.7,29.88,WNW,284,10.0,10.0,89,0.00,,,0.00,Wunderground v.1.15,2013-09-01 10:20:00,
2013-09-01 06:30:00,82.3,78.7,29.88,West,277,10.0,10.0,89,0.00,,,0.00,Wunderground v.1.15,2013-09-01 10:30:00,
2013-09-01 06:35:00,82.3,78.7,29.89,WNW,302,9.0,11.0,89,0.00,,,0.00,Wunderground v.1.15,2013-09-01 10:35:00,
2013-09-01 06:40:00,82.3,78.7,29.89,West,272,9.0,11.0,89,0.00,,,0.00,Wunderground v.1.15,2013-09-01 10:40:00,
2013-09-01 06:45:00,82.2,78.6,29.89,West,267,8.0,11.0,89,0.00,,,0.00,Wunderground v.1.15,2013-09-01 10:45:00,
2013-09-01 06:50:00,82.1,78.2,29.89,West,275,8.0,11.0,88,0.00,,,0.00,Wunderground v.1.15,2013-09-01 10:50:00,
2013-09-01 06:55:00,82.1,78.2,29.89,WNW,288,9.0,11.0,88,0.00,,,0.00,Wunderground v.1.15,2013-09-01 10:55:00,
2013-09-01 07:00:00,82.3,78.7,29.89,WNW,299,8.0,11.0,89,0.00,,,0.00,Wunderground v.1.15,2013-09-01 11:00:00,
2013-09-01 07:10:00,82.4,79.2,29.90,NW,311,6.0,6.0,90,0.00,,,0.00,Wunderground v.1.15,2013-09-01 11:10:00,
2013-09-01 07:15:00,82.2,79.0,29.90,NW,307,4.0,11.0,90,0.00,,,0.00,Wunderground v.1.15,2013-09-01 11:15:00,
2013-09-01 07:20:00,82.0,78.8,29.90,NW,322,2.0,11.0,90,0.00,,,0.00,Wunderground v.1.15,2013-09-01 11:20:00,
2013-09-01 07:25:00,81.9,79.0,29.90,WNW,292,4.0,11.0,91,0.00,,,0.00,Wunderground v.1.15,2013-09-01 11:25:00,
2013-09-01 07:30:00,81.7,78.8,29.90,NW,304,5.0,5.0,91,0.00,,,0.00,Wunderground v.1.15,2013-09-01 11:30:00,
2013-09-01 07:40:00,81.6,78.7,29.90,NW,304,2.0,2.0,91,0.00,,,0.00,Wunderground v.1.15,2013-09-01 11:40:00,
2013-09-01 07:50:00,81.5,78.9,29.91,NW,304,1.0,1.0,92,0.00,,,0.00,Wunderground v.1.15,2013-09-01 11:50:00,
2013-09-01 07:55:00,81.5,78.9,29.91,NW,309,1.0,11.0,92,0.00,,,0.00,Wunderground v.1.15,2013-09-01 11:55:00,
2013-09-01 08:00:00,81.6,79.0,29.91,WNW,298,0.0,11.0,92,0.00,,,0.00,Wunderground v.1.15,2013-09-01 12:00:00,
2013-09-01 08:05:00,81.6,79.0,29.91,WNW,300,0.0,11.0,92,0.00,,,0.00,Wunderground v.1.15,2013-09-01 12:05:00,
2013-09-01 08:10:00,81.6,79.0,29.91,WNW,302,2.0,11.0,92,0.00,,,0.00,Wunderground v.1.15,2013-09-01 12:10:00,
2013-09-01 08:20:00,81.6,79.0,29.91,NW,306,2.0,11.0,92,0.00,,,0.00,Wunderground v.1.15,2013-09-01 12:20:00,
2013-09-01 08:25:00,81.6,79.0,29.92,NW,305,1.0,11.0,92,0.00,,,0.00,Wunderground v.1.15,2013-09-01 12:25:00,
2013-09-01 08:30:00,81.6,79.0,29.92,NW,314,1.0,1.0,92,0.00,,,0.00,Wunderground v.1.15,2013-09-01 12:30:00,
2013-09-01 08:35:00,81.7,79.1,29.92,WNW,303,0.0,11.0,92,0.00,,,0.00,Wunderground v.1.15,2013-09-01 12:35:00,
2013-09-01 08:40:00,81.7,79.1,29.92,WNW,298,0.0,11.0,92,0.00,,,0.00,Wunderground v.1.15,2013-09-01 12:40:00,
2013-09-01 08:45:00,81.7,79.1,29.92,WNW,289,0.0,11.0,92,0.00,,,0.00,Wunderground v.1.15,2013-09-01 12:45:00,
2013-09-01 08:50:00,81.7,79.1,29.93,WNW,303,0.0,11.0,92,0.00,,,0.00,Wunderground v.1.15,2013-09-01 12:50:00,
2013-09-01 09:00:00,81.9,79.3,29.93,WNW,282,1.0,1.0,92,0.00,,,0.00,Wunderground v.1.15,2013-09-01 13:00:00,
2013-09-01 09:05:00,81.9,79.3,29.93,WNW,288,2.0,2.0,92,0.00,,,0.00,Wunderground v.1.15,2013-09-01 13:05:00,
2013-09-01 09:10:00,81.9,79.3,29.93,WNW,290,4.0,4.0,92,0.00,,,0.00,Wunderground v.1.15,2013-09-01 13:10:00,
2013-09-01 09:15:00,82.0,79.4,29.93,WNW,282,4.0,5.0,92,0.00,,,0.00,Wunderground v.1.15,2013-09-01 13:15:00,
2013-09-01 09:20:00,82.1,79.5,29.93,West,280,5.0,5.0,92,0.00,,,0.00,Wunderground v.1.15,2013-09-01 13:20:00,
2013-09-01 09:25:00,82.1,79.5,29.93,WNW,296,5.0,11.0,92,0.00,,,0.00,Wunderground v.1.15,2013-09-01 13:25:00,
2013-09-01 09:35:00,82.4,79.5,29.93,WNW,292,2.0,5.0,91,0.00,,,0.00,Wunderground v.1.15,2013-09-01 13:35:00,
2013-09-01 09:45:00,82.4,79.2,29.93,WNW,294,6.0,11.0,90,0.00,,,0.00,Wunderground v.1.15,2013-09-01 13:45:00,
2013-09-01 09:50:00,82.4,79.2,29.93,WNW,300,6.0,6.0,90,0.00,,,0.00,Wunderground v.1.15,2013-09-01 13:50:00,
2013-09-01 09:55:00,82.5,79.3,29.93,WNW,295,5.0,11.0,90,0.00,,,0.00,Wunderground v.1.15,2013-09-01 13:55:00,
2013-09-01 10:00:00,82.5,79.3,29.93,WNW,294,5.0,5.0,90,0.00,,,0.00,Wunderground v.1.15,2013-09-01 14:00:00,
2013-09-01 10:05:00,82.6,79.4,29.93,WNW,291,5.0,7.0,90,0.00,,,0.00,Wunderground v.1.15,2013-09-01 14:05:00,
2013-09-01 10:10:00,82.7,79.5,29.94,West,279,6.0,11.0,90,0.00,,,0.00,Wunderground v.1.15,2013-09-01 14:10:00,
2013-09-01 10:20:00,82.9,79.7,29.94,WNW,282,4.0,4.0,90,0.00,,,0.00,Wunderground v.1.15,2013-09-01 14:20:00,
2013-09-01 10:25:00,83.1,79.5,29.94,WNW,285,5.0,5.0,89,0.00,,,0.00,Wunderground v.1.15,2013-09-01 14:25:00,
2013-09-01 10:30:00,83.3,79.7,29.94,WNW,286,6.0,11.0,89,0.00,,,0.00,Wunderground v.1.15,2013-09-01 14:30:00,
2013-09-01 10:35:00,83.4,79.8,29.94,West,277,7.0,11.0,89,0.00,,,0.00,Wunderground v.1.15,2013-09-01 14:35:00,
2013-09-01 10:40:00,83.4,79.5,29.94,WNW,291,7.0,11.0,88,0.00,,,0.00,Wunderground v.1.15,2013-09-01 14:40:00,
2013-09-01 10:45:00,83.5,79.6,29.94,WNW,286,7.0,11.0,88,0.00,,,0.00,Wunderground v.1.15,2013-09-01 14:45:00,
2013-09-01 10:55:00,84.1,80.2,29.94,WNW,289,7.0,9.0,88,0.00,,,0.00,Wunderground v.1.15,2013-09-01 14:55:00,
2013-09-01 11:00:00,84.6,80.3,29.94,WNW,285,8.0,8.0,87,0.00,,,0.00,Wunderground v.1.15,2013-09-01 15:00:00,
2013-09-01 11:05:00,85.2,80.5,29.94,West,281,8.0,11.0,86,0.00,,,0.00,Wunderground v.1.15,2013-09-01 15:05:00,
2013-09-01 11:10:00,85.9,80.5,29.94,WNW,290,9.0,11.0,84,0.00,,,0.00,Wunderground v.1.15,2013-09-01 15:10:00,
2013-09-01 11:15:00,86.7,81.3,29.94,WNW,288,8.0,11.0,84,0.00,,,0.00,Wunderground v.1.15,2013-09-01 15:15:00,
2013-09-01 11:20:00,87.5,81.7,29.94,WNW,290,7.0,7.0,83,0.00,,,0.00,Wunderground v.1.15,2013-09-01 15:20:00,
2013-09-01 11:25:00,87.6,80.7,29.94,WNW,288,9.0,10.0,80,0.00,,,0.00,Wunderground v.1.15,2013-09-01 15:25:00,
2013-09-01 11:30:00,87.7,80.4,29.94,WNW,285,10.0,11.0,79,0.00,,,0.00,Wunderground v.1.15,2013-09-01 15:30:00,
2013-09-01 11:35:00,87.9,80.6,29.94,West,269,10.0,12.0,79,0.00,,,0.00,Wunderground v.1.15,2013-09-01 15:35:00,
2013-09-01 11:45:00,88.3,80.6,29.94,WNW,284,9.0,11.0,78,0.00,,,0.00,Wunderground v.1.15,2013-09-01 15:45:00,
2013-09-01 11:50:00,88.5,80.8,29.94,WNW,291,9.0,9.0,78,0.00,,,0.00,Wunderground v.1.15,2013-09-01 15:50:00,
2013-09-01 11:55:00,88.5,80.4,29.93,WNW,298,9.0,12.0,77,0.00,,,0.00,Wunderground v.1.15,2013-09-01 15:55:00,
2013-09-01 12:00:00,88.5,80.8,29.93,West,281,10.0,11.0,78,0.00,,,0.00,Wunderground v.1.15,2013-09-01 16:00:00,
2013-09-01 12:05:00,88.5,80.0,29.94,West,276,10.0,11.0,76,0.00,,,0.00,Wunderground v.1.15,2013-09-01 16:05:00,
2013-09-01 12:10:00,88.8,80.3,29.94,WNW,288,10.0,10.0,76,0.00,,,0.00,Wunderground v.1.15,2013-09-01 16:10:00,
2013-09-01 12:20:00,89.0,80.4,29.94,West,270,9.0,9.0,76,0.00,,,0.00,Wunderground v.1.15,2013-09-01 16:20:00,
2013-09-01 12:25:00,89.3,80.7,29.94,West,281,8.0,11.0,76,0.00,,,0.00,Wunderground v.1.15,2013-09-01 16:25:00,
2013-09-01 12:30:00,89.4,80.4,29.94,WNW,294,9.0,11.0,75,0.00,,,0.00,Wunderground v.1.15,2013-09-01 16:30:00,
2013-09-01 12:35:00,89.8,80.4,29.94,West,273,10.0,11.0,74,0.00,,,0.00,Wunderground v.1.15,2013-09-01 16:35:00,
2013-09-01 12:40:00,90.1,80.7,29.94,West,278,9.0,9.0,74,0.00,,,0.00,Wunderground v.1.15,2013-09-01 16:40:00,
2013-09-01 12:50:00,90.3,80.9,29.94,West,268,9.0,9.0,74,0.00,,,0.00,Wunderground v.1.15,2013-09-01 16:50:00,
2013-09-01 12:55:00,89.9,80.1,29.94,WNW,289,9.0,11.0,73,0.00,,,0.00,Wunderground v.1.15,2013-09-01 16:55:00,
2013-09-01 13:00:00,89.5,80.1,29.94,West,275,8.0,8.0,74,0.00,,,0.00,Wunderground v.1.15,2013-09-01 17:00:00,
2013-09-01 13:05:00,89.0,79.6,29.94,WNW,290,8.0,11.0,74,0.00,,,0.00,Wunderground v.1.15,2013-09-01 17:05:00,
2013-09-01 13:10:00,88.7,79.8,29.94,West,265,8.0,11.0,75,0.00,,,0.00,Wunderground v.1.15,2013-09-01 17:10:00,
2013-09-01 13:15:00,88.8,79.4,29.94,West,262,9.0,11.0,74,0.00,,,0.00,Wunderground v.1.15,2013-09-01 17:15:00,
2013-09-01 13:20:00,88.8,79.8,29.94,WSW,251,8.0,8.0,75,0.00,,,0.00,Wunderground v.1.15,2013-09-01 17:20:00,
2013-09-01 13:30:00,87.2,79.9,29.94,WSW,243,8.0,11.0,79,0.00,,,0.00,Wunderground v.1.15,2013-09-01 17:30:00,
2013-09-01 13:35:00,87.5,80.2,29.94,West,274,8.0,11.0,79,0.00,,,0.00,Wunderground v.1.15,2013-09-01 17:35:00,
2013-09-01 13:40:00,87.8,79.7,29.94,WSW,252,9.0,9.0,77,0.00,,,0.00,Wunderground v.1.15,2013-09-01 17:40:00,
2013-09-01 13:45:00,88.2,79.7,29.94,WSW,256,9.0,10.0,76,0.00,,,0.00,Wunderground v.1.15,2013-09-01 17:45:00,
2013-09-01 13:50:00,88.2,79.3,29.94,WSW,244,9.0,11.0,75,0.00,,,0.00,Wunderground v.1.15,2013-09-01 17:50:00,
2013-09-01 13:55:00,88.4,79.9,29.93,WNW,296,9.0,11.0,76,0.00,,,0.00,Wunderground v.1.15,2013-09-01 17:55:00,
2013-09-01 14:05:00,88.8,79.0,29.93,SW,234,10.0,11.0,73,0.00,,,0.00,Wunderground v.1.15,2013-09-01 18:05:00,
2013-09-01 14:10:00,88.7,79.3,29.93,WSW,251,9.0,12.0,74,0.00,,,0.00,Wunderground v.1.15,2013-09-01 18:10:00,
2013-09-01 14:15:00,88.3,79.8,29.92,West,261,8.0,12.0,76,0.00,,,0.00,Wunderground v.1.15,2013-09-01 18:15:00,
2013-09-01 14:20:00,88.0,79.5,29.92,WSW,252,9.0,11.0,76,0.00,,,0.00,Wunderground v.1.15,2013-09-01 18:20:00,
2013-09-01 14:25:00,87.5,79.4,29.92,WSW,242,9.0,11.0,77,0.00,,,0.00,Wunderground v.1.15,2013-09-01 18:25:00,
2013-09-01 14:30:00,87.1,79.4,29.92,WSW,244,9.0,11.0,78,0.00,,,0.00,Wunderground v.1.15,2013-09-01 18:30:00,
2013-09-01 14:35:00,87.0,79.7,29.92,WSW,258,10.0,11.0,79,0.00,,,0.00,Wunderground v.1.15,2013-09-01 18:35:00,
2013-09-01 14:45:00,87.1,79.8,29.92,WSW,242,9.0,12.0,79,0.00,,,0.00,Wunderground v.1.15,2013-09-01 18:45:00,
2013-09-01 14:50:00,86.9,80.0,29.93,WSW,249,10.0,10.0,80,0.00,,,0.00,Wunderground v.1.15,2013-09-01 18:50:00,
2013-09-01 14:55:00,86.7,79.8,29.92,WSW,246,10.0,11.0,80,0.00,,,0.00,Wunderground v.1.15,2013-09-01 18:55:00,
2013-09-01 15:00:00,86.6,79.7,29.92,West,261,10.0,12.0,80,0.00,,,0.00,Wunderground v.1.15,2013-09-01 19:00:00,
2013-09-01 15:05:00,86.3,79.8,29.92,SW,235,10.0,12.0,81,0.00,,,0.00,Wunderground v.1.15,2013-09-01 19:05:00,
2013-09-01 15:10:00,86.0,79.9,29.92,West,261,9.0,11.0,82,0.00,,,0.00,Wunderground v.1.15,2013-09-01 19:10:00,
2013-09-01 15:20:00,85.7,79.6,29.91,WSW,253,9.0,9.0,82,0.00,,,0.00,Wunderground v.1.15,2013-09-01 19:20:00,
2013-09-01 15:25:00,85.7,79.6,29.90,WSW,254,9.0,13.0,82,0.00,,,0.00,Wunderground v.1.15,2013-09-01 19:25:00,
2013-09-01 15:30:00,85.5,79.4,29.90,WSW,258,11.0,11.0,82,0.00,,,0.00,Wunderground v.1.15,2013-09-01 19:30:00,
2013-09-01 15:35:00,85.6,79.5,29.90,West,281,11.0,11.0,82,0.00,,,0.00,Wunderground v.1.15,2013-09-01 19:35:00,
2013-09-01 15:40:00,86.2,79.7,29.90,WSW,245,10.0,13.0,81,0.00,,,0.00,Wunderground v.1.15,2013-09-01 19:40:00,
2013-09-01 15:50:00,87.2,79.9,29.91,WSW,250,9.0,11.0,79,0.00,,,0.00,Wunderground v.1.15,2013-09-01 19:50:00,
2013-09-01 16:00:00,87.4,79.3,29.91,SW,230,9.0,9.0,77,0.00,,,0.00,Wunderground v.1.15,2013-09-01 20:00:00,
2013-09-01 16:05:00,87.3,78.8,29.91,WSW,239,9.0,11.0,76,0.00,,,0.00,Wunderground v.1.15,2013-09-01 20:05:00,
2013-09-01 16:10:00,87.1,78.6,29.90,SW,234,9.0,11.0,76,0.00,,,0.00,Wunderground v.1.15,2013-09-01 20:10:00,
2013-09-01 16:15:00,86.9,78.8,29.90,SW,234,9.0,11.0,77,0.00,,,0.00,Wunderground v.1.15,2013-09-01 20:15:00,
2013-09-01 16:20:00,86.7,78.6,29.90,West,260,9.0,11.0,77,0.00,,,0.00,Wunderground v.1.15,2013-09-01 20:20:00,
2013-09-01 16:25:00,86.5,78.8,29.90,WSW,254,9.0,11.0,78,0.00,,,0.00,Wunderground v.1.15,2013-09-01 20:25:00,
2013-09-01 16:35:00,85.9,78.2,29.89,WSW,249,9.0,11.0,78,0.00,,,0.00,Wunderground v.1.15,2013-09-01 20:35:00,
2013-09-01 16:40:00,85.8,78.5,29.89,WSW,243,9.0,11.0,79,0.00,,,0.00,Wunderground v.1.15,2013-09-01 20:40:00,
2013-09-01 16:45:00,85.9,78.6,29.89,WSW,244,8.0,11.0,79,0.00,,,0.00,Wunderground v.1.15,2013-09-01 20:45:00,
2013-09-01 16:50:00,86.0,78.3,29.89,WSW,248,9.0,13.0,78,0.00,,,0.00,Wunderground v.1.15,2013-09-01 20:50:00,
2013-09-01 16:55:00,86.0,78.3,29.88,WSW,244,10.0,13.0,78,0.00,,,0.00,Wunderground v.1.15,2013-09-01 20:55:00,
2013-09-01 17:00:00,86.1,78.0,29.88,WSW,250,9.0,9.0,77,0.00,,,0.00,Wunderground v.1.15,2013-09-01 21:00:00,
2013-09-01 17:10:00,85.6,77.6,29.88,West,259,9.0,9.0,77,0.00,,,0.00,Wunderground v.1.15,2013-09-01 21:10:00,
2013-09-01 17:15:00,85.4,77.8,29.88,WSW,244,9.0,11.0,78,0.00,,,0.00,Wunderground v.1.15,2013-09-01 21:15:00,
2013-09-01 17:20:00,85.2,77.6,29.88,WSW,248,8.0,11.0,78,0.00,,,0.00,Wunderground v.1.15,2013-09-01 21:20:00,
2013-09-01 17:25:00,85.2,77.6,29.88,WSW,243,8.0,11.0,78,0.00,,,0.00,Wunderground v.1.15,2013-09-01 21:25:00,
2013-09-01 17:30:00,85.2,77.9,29.88,WSW,246,9.0,9.0,79,0.00,,,0.00,Wunderground v.1.15,2013-09-01 21:30:00,
2013-09-01 17:40:00,85.1,77.5,29.88,WSW,238,8.0,11.0,78,0.00,,,0.00,Wunderground v.1.15,2013-09-01 21:40:00,
2013-09-01 17:50:00,85.4,77.8,29.89,WSW,241,7.0,11.0,78,0.00,,,0.00,Wunderground v.1.15,2013-09-01 21:50:00,
2013-09-01 17:55:00,85.5,77.9,29.89,WSW,255,7.0,11.0,78,0.00,,,0.00,Wunderground v.1.15,2013-09-01 21:55:00,
2013-09-01 18:00:00,85.5,77.9,29.89,SW,229,7.0,11.0,78,0.00,,,0.00,Wunderground v.1.15,2013-09-01 22:00:00,
2013-09-01 18:05:00,85.6,78.3,29.89,WSW,241,7.0,11.0,79,0.00,,,0.00,Wunderground v.1.15,2013-09-01 22:05:00,
2013-09-01 18:15:00,85.6,78.3,29.88,SSW,212,9.0,11.0,79,0.00,,,0.00,Wunderground v.1.15,2013-09-01 22:15:00,
2013-09-01 18:20:00,85.5,78.2,29.89,WSW,242,8.0,8.0,79,0.00,,,0.00,Wunderground v.1.15,2013-09-01 22:20:00,
2013-09-01 18:25:00,85.2,77.9,29.89,SW,222,8.0,10.0,79,0.00,,,0.00,Wunderground v.1.15,2013-09-01 22:25:00,
2013-09-01 18:30:00,85.1,77.8,29.89,WSW,255,7.0,11.0,79,0.00,,,0.00,Wunderground v.1.15,2013-09-01 22:30:00,
2013-09-01 18:35:00,85.0,78.1,29.89,WSW,245,7.0,11.0,80,0.00,,,0.00,Wunderground v.1.15,2013-09-01 22:35:00,
2013-09-01 18:40:00,85.0,78.5,29.89,SW,230,7.0,11.0,81,0.00,,,0.00,Wunderground v.1.15,2013-09-01 22:40:00,
2013-09-01 18:45:00,84.7,78.2,29.88,WSW,238,7.0,11.0,81,0.00,,,0.00,Wunderground v.1.15,2013-09-01 22:45:00,
2013-09-01 18:50:00,84.6,78.5,29.88,SW,227,7.0,11.0,82,0.00,,,0.00,Wunderground v.1.15,2013-09-01 22:50:00,
2013-09-01 19:00:00,84.4,78.3,29.88,WSW,243,5.0,11.0,82,0.00,,,0.00,Wunderground v.1.15,2013-09-01 23:00:00,
2013-09-01 19:05:00,84.3,78.2,29.88,SW,230,4.0,11.0,82,0.00,,,0.00,Wunderground v.1.15,2013-09-01 23:05:00,
2013-09-01 19:10:00,84.2,78.5,29.88,WSW,239,5.0,11.0,83,0.00,,,0.00,Wunderground v.1.15,2013-09-01 23:10:00,
2013-09-01 19:15:00,84.1,78.4,29.88,WSW,243,4.0,11.0,83,0.00,,,0.00,Wunderground v.1.15,2013-09-01 23:15:00,
2013-09-01 19:20:00,84.1,78.7,29.87,WSW,242,4.0,4.0,84,0.00,,,0.00,Wunderground v.1.15,2013-09-01 23:20:00,
2013-09-01 19:25:00,83.9,78.2,29.87,WSW,254,5.0,5.0,83,0.00,,,0.00,Wunderground v.1.15,2013-09-01 23:25:00,
2013-09-01 19:35:00,83.8,78.1,29.88,SW,233,5.0,11.0,83,0.00,,,0.00,Wunderground v.1.15,2013-09-01 23:35:00,
2013-09-01 19:40:00,83.7,78.0,29.87,SW,232,3.0,11.0,83,0.00,,,0.00,Wunderground v.1.15,2013-09-01 23:40:00,
2013-09-01 19:45:00,83.7,78.0,29.87,WSW,241,2.0,11.0,83,0.00,,,0.00,Wunderground v.1.15,2013-09-01 23:45:00,
2013-09-01 19:50:00,83.7,78.3,29.88,SW,226,3.0,3.0,84,0.00,,,0.00,Wunderground v.1.15,2013-09-01 23:50:00,
2013-09-01 19:55:00,83.7,78.3,29.88,SW,220,2.0,6.0,84,0.00,,,0.00,Wunderground v.1.15,2013-09-01 23:55:00,
2013-09-01 20:05:00,83.5,78.5,29.88,SW,225,2.0,7.0,85,0.00,,,0.00,Wunderground v.1.15,2013-09-02 00:05:00,
2013-09-01 20:10:00,83.4,78.4,29.87,SW,227,4.0,11.0,85,0.00,,,0.00,Wunderground v.1.15,2013-09-02 00:10:00,
2013-09-01 20:15:00,83.4,78.4,29.87,SW,236,6.0,11.0,85,0.00,,,0.00,Wunderground v.1.15,2013-09-02 00:15:00,
2013-09-01 20:20:00,83.3,78.0,29.87,SW,225,6.0,11.0,84,0.00,,,0.00,Wunderground v.1.15,2013-09-02 00:20:00,
2013-09-01 20:25:00,83.3,78.0,29.87,SW,234,6.0,11.0,84,0.00,,,0.00,Wunderground v.1.15,2013-09-02 00:25:00,
2013-09-01 20:30:00,83.3,78.0,29.87,SW,218,5.0,5.0,84,0.00,,,0.00,Wunderground v.1.15,2013-09-02 00:30:00,
2013-09-01 20:40:00,83.2,77.9,29.87,SW,225,4.0,4.0,84,0.00,,,0.00,Wunderground v.1.15,2013-09-02 00:40:00,
2013-09-01 20:45:00,83.1,77.8,29.87,SW,217,5.0,5.0,84,0.00,,,0.00,Wunderground v.1.15,2013-09-02 00:45:00,
2013-09-01 20:50:00,83.2,77.9,29.87,SW,219,6.0,6.0,84,0.00,,,0.00,Wunderground v.1.15,2013-09-02 00:50:00,
2013-09-01 20:55:00,83.1,77.8,29.87,WSW,241,4.0,11.0,84,0.00,,,0.00,Wunderground v.1.15,2013-09-02 00:55:00,
2013-09-01 21:00:00,83.0,77.7,29.87,SW,225,2.0,11.0,84,0.00,,,0.00,Wunderground v.1.15,2013-09-02 01:00:00,
2013-09-01 21:10:00,82.9,77.6,29.88,WSW,247,3.0,11.0,84,0.00,,,0.00,Wunderground v.1.15,2013-09-02 01:10:00,
2013-09-01 21:15:00,82.9,77.6,29.88,West,259,5.0,11.0,84,0.00,,,0.00,Wunderground v.1.15,2013-09-02 01:15:00,
2013-09-01 21:20:00,82.9,77.6,29.88,WSW,249,4.0,4.0,84,0.00,,,0.00,Wunderground v.1.15,2013-09-02 01:20:00,
2013-09-01 21:25:00,82.8,77.5,29.88,WSW,244,3.0,5.0,84,0.00,,,0.00,Wunderground v.1.15,2013-09-02 01:25:00,
2013-09-01 21:30:00,82.8,77.8,29.88,WSW,248,4.0,4.0,85,0.00,,,0.00,Wunderground v.1.15,2013-09-02 01:30:00,
2013-09-01 21:35:00,82.8,77.8,29.89,SW,229,2.0,11.0,85,0.00,,,0.00,Wunderground v.1.15,2013-09-02 01:35:00,
2013-09-01 21:40:00,82.8,77.8,29.89,SW,234,0.0,11.0,85,0.00,,,0.00,Wunderground v.1.15,2013-09-02 01:40:00,
2013-09-01 21:45:00,82.8,77.8,29.89,WSW,256,1.0,11.0,85,0.00,,,0.00,Wunderground v.1.15,2013-09-02 01:45:00,
2013-09-01 21:55:00,82.7,77.7,29.90,West,261,1.0,11.0,85,0.00,,,0.00,Wunderground v.1.15,2013-09-02 01:55:00,
2013-09-01 22:00:00,82.7,78.1,29.90,WSW,249,0.0,11.0,86,0.00,,,0.00,Wunderground v.1.15,2013-09-02 02:00:00,
2013-09-01 22:05:00,82.7,77.7,29.90,WSW,250,1.0,11.0,85,0.00,,,0.00,Wunderground v.1.15,2013-09-02 02:05:00,
2013-09-01 22:10:00,82.7,78.1,29.90,WSW,250,1.0,1.0,86,0.00,,,0.00,Wunderground v.1.15,2013-09-02 02:10:00,
2013-09-01 22:15:00,82.7,78.1,29.91,WSW,250,0.0,11.0,86,0.00,,,0.00,Wunderground v.1.15,2013-09-02 02:15:00,
2013-09-01 22:20:00,82.7,78.1,29.91,WSW,244,1.0,1.0,86,0.00,,,0.00,Wunderground v.1.15,2013-09-02 02:20:00,
2013-09-01 22:30:00,82.7,78.1,29.91,WSW,257,3.0,11.0,86,0.00,,,0.00,Wunderground v.1.15,2013-09-02 02:30:00,
2013-09-01 22:35:00,82.7,78.4,29.91,WSW,246,3.0,11.0,87,0.00,,,0.00,Wunderground v.1.15,2013-09-02 02:35:00,
2013-09-01 22:40:00,82.7,78.4,29.91,WSW,246,1.0,1.0,87,0.00,,,0.00,Wunderground v.1.15,2013-09-02 02:40:00,
2013-09-01 22:45:00,82.6,78.3,29.92,WSW,254,0.0,11.0,87,0.00,,,0.00,Wunderground v.1.15,2013-09-02 02:45:00,
2013-09-01 22:50:00,82.6,78.3,29.92,WSW,244,0.0,11.0,87,0.00,,,0.00,Wunderground v.1.15,2013-09-02 02:50:00,
2013-09-01 22:55:00,82.6,78.3,29.92,WSW,249,0.0,11.0,87,0.00,,,0.00,Wunderground v.1.15,2013-09-02 02:55:00,
2013-09-01 23:00:00,82.6,78.3,29.92,WSW,249,0.0,11.0,87,0.00,,,0.00,Wunderground v.1.15,2013-09-02 03:00:00,
2013-09-01 23:05:00,82.6,78.3,29.92,West,259,1.0,11.0,87,0.00,,,0.00,Wunderground v.1.15,2013-09-02 03:05:00,
2013-09-01 23:15:00,82.6,78.3,29.93,WSW,252,3.0,11.0,87,0.00,,,0.00,Wunderground v.1.15,2013-09-02 03:15:00,
2013-09-01 23:20:00,82.7,78.4,29.92,WSW,242,4.0,11.0,87,0.00,,,0.00,Wunderground v.1.15,2013-09-02 03:20:00,
2013-09-01 23:25:00,82.8,78.5,29.93,WSW,248,6.0,11.0,87,0.00,,,0.00,Wunderground v.1.15,2013-09-02 03:25:00,
2013-09-01 23:30:00,82.9,78.6,29.93,WSW,242,5.0,11.0,87,0.00,,,0.00,Wunderground v.1.15,2013-09-02 03:30:00,
2013-09-01 23:40:00,82.9,78.6,29.93,West,265,4.0,4.0,87,0.00,,,0.00,Wunderground v.1.15,2013-09-02 03:40:00,
2013-09-01 23:45:00,82.8,78.5,29.93,West,259,4.0,11.0,87,0.00,,,0.00,Wunderground v.1.15,2013-09-02 03:45:00,
2013-09-01 23:50:00,82.9,78.6,29.93,WSW,258,4.0,4.0,87,0.00,,,0.00,Wunderground v.1.15,2013-09-02 03:50:00,
2013-09-01 23:55:00,82.8,78.5,29.92,WSW,253,5.0,6.0,87,0.00,,,0.00,Wunderground v.1.15,2013-09-02 03:55:00,